Zhaotong, China
Current Conditions -  °F | °C
As of 2:00 AM on Wednesday 22 Oct 2014 (Local Time) from ZPPP Reporting Station
Clear Clear  
Wind Chill: 52°   Ceiling: Unl
Heat Index: 52°   Visibility: 6mi
Dew Point: 50°   Wind: 7mph
Humidity: 94%   Direction: 20°NNE
Pressure: 30.39"   Gusts: NA
Location:  27.32°N, 103.72°E
Report Text: ZPPP 211800Z 02003MPS 350V060 9000 NSC 11/10 Q1029 NOSIG
Loading
Personal Weather Stations






























Interactive Weather Map
Tropical Storm Tracking
New forecast layout! Learn more

10-Day Weather Forecast

Advertisements
Track Severe Weather on mobile